Arcadia Highway — 3FQT4 — position and weather

sailwx.info

Track history (hours):
 
Tides and Currents Weather Stations Pressure Air Temp Water Temp Dewpoint Dewpoint Depression Visibility Wind Speed Wind Dir Waves Ship Positions

Arcadia Highway

Last reported at 2018-Jun-18 21:26 UTC. Time now 2018-Jun-23 06:25 UTC.
Position S 03°13' E 127°20'.

Length 179 m; draft 7.2 m.

Type: Cargo ship. MMSI: 354342000.

Date/timePositionNaut miles runAvg speedWind from/ knotsBaromVisibWave heightAir tempDewpointWater temp
2018-Jun-18 21:26S 03°13' E 127°20'716.3
2018-Jun-18 21:00S 03°20' E 127°22'715.1
2018-Jun-18 20:30S 03°27' E 127°24'714.6
2018-Jun-18 20:00S 03°34' E 127°26'714.6
2018-Jun-18 19:30S 03°41' E 127°28'815.2
2018-Jun-18 19:00S 03°48' E 127°31'816.1
2018-Jun-18 18:30S 03°56' E 127°33'917.0
2018-Jun-18 17:58S 04°05' E 127°35'917.3
2018-Jun-18 17:28S 04°13' E 127°38'817.2
2018-Jun-18 16:58S 04°21' E 127°40'  
2018-Jun-11 10:36S 31°59' E 115°42'113.6
2018-Jun-11 10:30S 31°60' E 115°42'4 7.8
2018-Jun-11 10:00S 32°03' E 115°45'1 0.0
2018-Jun-09 17:04S 32°03' E 115°45'0 0.9
2018-Jun-09 17:00S 32°03' E 115°45'3 6.3
2018-Jun-09 16:30S 32°03' E 115°41'2 4.8
2018-Jun-09 16:00S 32°01' E 115°42'4 3.4
2018-Jun-09 14:57S 31°58' E 115°40'  
Track history (hours):
 
Tides and Currents Weather Stations Pressure Air Temp Water Temp Dewpoint Dewpoint Depression Visibility Wind Speed Wind Dir Waves Ship Positions

Arcadia Highway

Last reported at 2018-Jun-18 21:26 UTC. Time now 2018-Jun-23 06:25 UTC.
Position S 03°13' E 127°20'.

Length 179 m; draft 7.2 m.

Type: Cargo ship. MMSI: 354342000.

Date/timePositionNaut miles runAvg speedWind from/ knotsBaromVisibWave heightAir tempDewpointWater temp
2018-Jun-18 21:26S 03°13' E 127°20'716.3
2018-Jun-18 21:00S 03°20' E 127°22'715.1
2018-Jun-18 20:30S 03°27' E 127°24'714.6
2018-Jun-18 20:00S 03°34' E 127°26'714.6
2018-Jun-18 19:30S 03°41' E 127°28'815.2
2018-Jun-18 19:00S 03°48' E 127°31'816.1
2018-Jun-18 18:30S 03°56' E 127°33'917.0
2018-Jun-18 17:58S 04°05' E 127°35'917.3
2018-Jun-18 17:28S 04°13' E 127°38'817.2
2018-Jun-18 16:58S 04°21' E 127°40'  
2018-Jun-11 10:36S 31°59' E 115°42'113.6
2018-Jun-11 10:30S 31°60' E 115°42'4 7.8
2018-Jun-11 10:00S 32°03' E 115°45'1 0.0
2018-Jun-09 17:04S 32°03' E 115°45'0 0.9
2018-Jun-09 17:00S 32°03' E 115°45'3 6.3
2018-Jun-09 16:30S 32°03' E 115°41'2 4.8
2018-Jun-09 16:00S 32°01' E 115°42'4 3.4
2018-Jun-09 14:57S 31°58' E 115°40'  

Dump ship's entire track history